sensor_id;sensor_type;location;lat;lon;timestamp;P1;durP1;ratioP1;P2;durP2;ratioP2
66663;SDS011;59683;51.428;-1.994;2024-01-06T00:02:05;8.70;;;1.73;;
66663;SDS011;59683;51.428;-1.994;2024-01-06T00:04:31;3.70;;;1.73;;
66663;SDS011;59683;51.428;-1.994;2024-01-06T00:06:57;3.80;;;1.38;;
66663;SDS011;59683;51.428;-1.994;2024-01-06T00:09:22;6.30;;;1.50;;
66663;SDS011;59683;51.428;-1.994;2024-01-06T00:11:47;7.40;;;1.50;;
66663;SDS011;59683;51.428;-1.994;2024-01-06T00:14:13;4.33;;;1.43;;
66663;SDS011;59683;51.428;-1.994;2024-01-06T00:16:38;5.07;;;1.30;;
66663;SDS011;59683;51.428;-1.994;2024-01-06T00:19:04;7.40;;;2.20;;
66663;SDS011;59683;51.428;-1.994;2024-01-06T00:21:29;4.53;;;1.40;;
66663;SDS011;59683;51.428;-1.994;2024-01-06T00:23:54;6.30;;;1.50;;
66663;SDS011;59683;51.428;-1.994;2024-01-06T00:26:22;6.20;;;1.40;;
66663;SDS011;59683;51.428;-1.994;2024-01-06T00:28:49;3.97;;;1.35;;
66663;SDS011;59683;51.428;-1.994;2024-01-06T00:31:15;4.83;;;1.50;;
66663;SDS011;59683;51.428;-1.994;2024-01-06T00:33:44;3.65;;;1.70;;
66663;SDS011;59683;51.428;-1.994;2024-01-06T00:36:09;2.47;;;0.97;;
66663;SDS011;59683;51.428;-1.994;2024-01-06T00:38:35;3.30;;;1.17;;
66663;SDS011;59683;51.428;-1.994;2024-01-06T00:41:01;4.13;;;1.20;;
66663;SDS011;59683;51.428;-1.994;2024-01-06T00:43:26;6.43;;;1.63;;
66663;SDS011;59683;51.428;-1.994;2024-01-06T00:45:52;3.90;;;1.40;;
66663;SDS011;59683;51.428;-1.994;2024-01-06T00:48:17;3.20;;;1.23;;
66663;SDS011;59683;51.428;-1.994;2024-01-06T00:50:43;5.43;;;1.40;;
66663;SDS011;59683;51.428;-1.994;2024-01-06T00:53:08;4.40;;;1.43;;
66663;SDS011;59683;51.428;-1.994;2024-01-06T00:55:33;6.83;;;1.40;;
66663;SDS011;59683;51.428;-1.994;2024-01-06T00:57:59;2.37;;;1.20;;
66663;SDS011;59683;51.428;-1.994;2024-01-06T01:00:25;3.65;;;1.58;;
66663;SDS011;59683;51.428;-1.994;2024-01-06T01:02:52;3.85;;;1.40;;
66663;SDS011;59683;51.428;-1.994;2024-01-06T01:05:17;4.03;;;1.07;;
66663;SDS011;59683;51.428;-1.994;2024-01-06T01:07:43;2.13;;;1.00;;
66663;SDS011;59683;51.428;-1.994;2024-01-06T01:10:08;4.90;;;1.33;;
66663;SDS011;59683;51.428;-1.994;2024-01-06T01:12:34;4.00;;;1.52;;
66663;SDS011;59683;51.428;-1.994;2024-01-06T01:15:00;2.37;;;1.40;;
66663;SDS011;59683;51.428;-1.994;2024-01-06T01:17:25;4.70;;;1.17;;
66663;SDS011;59683;51.428;-1.994;2024-01-06T01:19:51;4.27;;;0.83;;
66663;SDS011;59683;51.428;-1.994;2024-01-06T01:22:16;5.07;;;1.13;;
66663;SDS011;59683;51.428;-1.994;2024-01-06T01:24:42;4.43;;;0.80;;
66663;SDS011;59683;51.428;-1.994;2024-01-06T01:27:07;5.30;;;1.00;;
66663;SDS011;59683;51.428;-1.994;2024-01-06T01:29:33;2.00;;;0.70;;
66663;SDS011;59683;51.428;-1.994;2024-01-06T01:31:58;2.70;;;1.10;;
66663;SDS011;59683;51.428;-1.994;2024-01-06T01:34:24;7.70;;;1.07;;
66663;SDS011;59683;51.428;-1.994;2024-01-06T01:36:49;5.23;;;0.93;;
66663;SDS011;59683;51.428;-1.994;2024-01-06T01:39:15;3.87;;;1.67;;
66663;SDS011;59683;51.428;-1.994;2024-01-06T01:41:40;4.43;;;0.93;;
66663;SDS011;59683;51.428;-1.994;2024-01-06T01:44:06;6.30;;;1.63;;
66663;SDS011;59683;51.428;-1.994;2024-01-06T01:46:31;5.10;;;1.80;;
66663;SDS011;59683;51.428;-1.994;2024-01-06T01:48:58;5.20;;;1.00;;
66663;SDS011;59683;51.428;-1.994;2024-01-06T01:51:29;4.05;;;0.98;;
66663;SDS011;59683;51.428;-1.994;2024-01-06T01:53:57;4.32;;;1.08;;
66663;SDS011;59683;51.428;-1.994;2024-01-06T01:56:23;4.70;;;0.90;;
66663;SDS011;59683;51.428;-1.994;2024-01-06T01:58:49;4.07;;;0.80;;
66663;SDS011;59683;51.428;-1.994;2024-01-06T02:01:15;1.60;;;0.80;;
66663;SDS011;59683;51.428;-1.994;2024-01-06T02:03:42;7.15;;;1.33;;
66663;SDS011;59683;51.428;-1.994;2024-01-06T02:06:08;3.95;;;0.98;;
66663;SDS011;59683;51.428;-1.994;2024-01-06T02:08:34;6.17;;;1.17;;
66663;SDS011;59683;51.428;-1.994;2024-01-06T02:10:59;6.90;;;1.20;;
66663;SDS011;59683;51.428;-1.994;2024-01-06T02:13:32;3.03;;;0.70;;
66663;SDS011;59683;51.428;-1.994;2024-01-06T02:15:59;5.47;;;1.10;;
66663;SDS011;59683;51.428;-1.994;2024-01-06T02:18:24;2.60;;;0.93;;
66663;SDS011;59683;51.428;-1.994;2024-01-06T02:20:50;3.67;;;0.63;;
66663;SDS011;59683;51.428;-1.994;2024-01-06T02:23:17;3.33;;;1.30;;
66663;SDS011;59683;51.428;-1.994;2024-01-06T02:25:43;3.80;;;1.07;;
66663;SDS011;59683;51.428;-1.994;2024-01-06T02:28:08;4.60;;;1.30;;
66663;SDS011;59683;51.428;-1.994;2024-01-06T02:30:34;5.50;;;1.13;;
66663;SDS011;59683;51.428;-1.994;2024-01-06T02:32:59;5.07;;;0.97;;
66663;SDS011;59683;51.428;-1.994;2024-01-06T02:35:24;3.00;;;0.80;;
66663;SDS011;59683;51.428;-1.994;2024-01-06T02:37:50;3.20;;;0.80;;
66663;SDS011;59683;51.428;-1.994;2024-01-06T02:40:15;3.63;;;0.83;;
66663;SDS011;59683;51.428;-1.994;2024-01-06T02:42:41;6.17;;;1.20;;
66663;SDS011;59683;51.428;-1.994;2024-01-06T02:45:06;5.77;;;1.37;;
66663;SDS011;59683;51.428;-1.994;2024-01-06T02:47:33;5.93;;;1.08;;
66663;SDS011;59683;51.428;-1.994;2024-01-06T02:49:58;4.33;;;0.93;;
66663;SDS011;59683;51.428;-1.994;2024-01-06T02:52:24;4.87;;;0.70;;
66663;SDS011;59683;51.428;-1.994;2024-01-06T02:54:49;3.70;;;1.10;;
66663;SDS011;59683;51.428;-1.994;2024-01-06T02:57:15;3.50;;;0.93;;
66663;SDS011;59683;51.428;-1.994;2024-01-06T02:59:40;4.33;;;0.87;;
66663;SDS011;59683;51.428;-1.994;2024-01-06T03:02:06;4.50;;;1.00;;
66663;SDS011;59683;51.428;-1.994;2024-01-06T03:04:31;8.53;;;1.23;;
66663;SDS011;59683;51.428;-1.994;2024-01-06T03:06:56;6.87;;;1.20;;
66663;SDS011;59683;51.428;-1.994;2024-01-06T03:09:22;3.77;;;0.80;;
66663;SDS011;59683;51.428;-1.994;2024-01-06T03:11:47;1.90;;;1.03;;
66663;SDS011;59683;51.428;-1.994;2024-01-06T03:14:13;4.33;;;0.93;;
66663;SDS011;59683;51.428;-1.994;2024-01-06T03:16:38;8.53;;;1.03;;
66663;SDS011;59683;51.428;-1.994;2024-01-06T03:19:04;5.83;;;1.33;;
66663;SDS011;59683;51.428;-1.994;2024-01-06T03:21:29;4.87;;;0.90;;
66663;SDS011;59683;51.428;-1.994;2024-01-06T03:23:55;4.77;;;1.00;;
66663;SDS011;59683;51.428;-1.994;2024-01-06T03:26:20;6.67;;;0.87;;
66663;SDS011;59683;51.428;-1.994;2024-01-06T03:28:46;5.87;;;1.47;;
66663;SDS011;59683;51.428;-1.994;2024-01-06T03:31:12;8.68;;;1.20;;
66663;SDS011;59683;51.428;-1.994;2024-01-06T03:33:38;5.33;;;1.50;;
66663;SDS011;59683;51.428;-1.994;2024-01-06T03:36:04;5.80;;;1.07;;
66663;SDS011;59683;51.428;-1.994;2024-01-06T03:38:31;3.13;;;0.93;;
66663;SDS011;59683;51.428;-1.994;2024-01-06T03:40:56;5.50;;;1.10;;
66663;SDS011;59683;51.428;-1.994;2024-01-06T03:43:21;5.97;;;0.97;;
66663;SDS011;59683;51.428;-1.994;2024-01-06T03:45:47;6.78;;;1.40;;
66663;SDS011;59683;51.428;-1.994;2024-01-06T03:48:13;4.53;;;0.83;;
66663;SDS011;59683;51.428;-1.994;2024-01-06T03:50:38;6.80;;;1.93;;
66663;SDS011;59683;51.428;-1.994;2024-01-06T03:53:04;5.97;;;1.00;;
66663;SDS011;59683;51.428;-1.994;2024-01-06T03:55:29;9.03;;;1.30;;
66663;SDS011;59683;51.428;-1.994;2024-01-06T03:57:55;9.63;;;1.77;;
66663;SDS011;59683;51.428;-1.994;2024-01-06T04:00:20;7.80;;;1.10;;
66663;SDS011;59683;51.428;-1.994;2024-01-06T04:02:46;2.73;;;1.00;;
66663;SDS011;59683;51.428;-1.994;2024-01-06T04:05:11;7.30;;;1.37;;
66663;SDS011;59683;51.428;-1.994;2024-01-06T04:07:36;10.33;;;1.50;;
66663;SDS011;59683;51.428;-1.994;2024-01-06T04:10:02;6.60;;;1.37;;
66663;SDS011;59683;51.428;-1.994;2024-01-06T04:12:27;9.80;;;1.20;;
66663;SDS011;59683;51.428;-1.994;2024-01-06T04:14:53;9.93;;;1.93;;
66663;SDS011;59683;51.428;-1.994;2024-01-06T04:17:18;4.83;;;1.47;;
66663;SDS011;59683;51.428;-1.994;2024-01-06T04:19:43;6.33;;;1.30;;
66663;SDS011;59683;51.428;-1.994;2024-01-06T04:22:09;3.17;;;1.17;;
66663;SDS011;59683;51.428;-1.994;2024-01-06T04:24:34;5.83;;;1.60;;
66663;SDS011;59683;51.428;-1.994;2024-01-06T04:27:03;8.70;;;1.35;;
66663;SDS011;59683;51.428;-1.994;2024-01-06T04:29:29;15.00;;;2.08;;
66663;SDS011;59683;51.428;-1.994;2024-01-06T04:31:55;7.10;;;1.60;;
66663;SDS011;59683;51.428;-1.994;2024-01-06T04:34:20;8.10;;;1.30;;
66663;SDS011;59683;51.428;-1.994;2024-01-06T04:36:45;7.90;;;2.00;;
66663;SDS011;59683;51.428;-1.994;2024-01-06T04:39:11;7.50;;;1.13;;
66663;SDS011;59683;51.428;-1.994;2024-01-06T04:41:38;10.25;;;1.58;;
66663;SDS011;59683;51.428;-1.994;2024-01-06T04:44:05;6.78;;;1.38;;
66663;SDS011;59683;51.428;-1.994;2024-01-06T04:46:30;11.93;;;1.27;;
66663;SDS011;59683;51.428;-1.994;2024-01-06T04:48:55;6.67;;;1.63;;
66663;SDS011;59683;51.428;-1.994;2024-01-06T04:51:21;4.30;;;1.27;;
66663;SDS011;59683;51.428;-1.994;2024-01-06T04:53:47;12.50;;;1.57;;
66663;SDS011;59683;51.428;-1.994;2024-01-06T04:56:12;10.87;;;1.47;;
66663;SDS011;59683;51.428;-1.994;2024-01-06T04:58:38;12.10;;;1.70;;
66663;SDS011;59683;51.428;-1.994;2024-01-06T05:01:03;5.03;;;1.30;;
66663;SDS011;59683;51.428;-1.994;2024-01-06T05:03:29;9.00;;;1.30;;
66663;SDS011;59683;51.428;-1.994;2024-01-06T05:05:55;17.37;;;2.30;;
66663;SDS011;59683;51.428;-1.994;2024-01-06T05:08:20;7.80;;;2.07;;
66663;SDS011;59683;51.428;-1.994;2024-01-06T05:10:47;16.65;;;2.75;;
66663;SDS011;59683;51.428;-1.994;2024-01-06T05:13:13;18.75;;;2.50;;
66663;SDS011;59683;51.428;-1.994;2024-01-06T05:15:38;8.00;;;1.67;;
66663;SDS011;59683;51.428;-1.994;2024-01-06T05:18:04;9.30;;;2.00;;
66663;SDS011;59683;51.428;-1.994;2024-01-06T05:20:30;15.23;;;1.80;;
66663;SDS011;59683;51.428;-1.994;2024-01-06T05:22:55;10.50;;;1.87;;
66663;SDS011;59683;51.428;-1.994;2024-01-06T05:25:20;15.30;;;1.70;;
66663;SDS011;59683;51.428;-1.994;2024-01-06T05:27:46;9.73;;;1.70;;
66663;SDS011;59683;51.428;-1.994;2024-01-06T05:30:11;12.93;;;2.10;;
66663;SDS011;59683;51.428;-1.994;2024-01-06T05:32:37;8.63;;;2.13;;
66663;SDS011;59683;51.428;-1.994;2024-01-06T05:35:03;13.68;;;1.85;;
66663;SDS011;59683;51.428;-1.994;2024-01-06T05:37:29;11.73;;;1.75;;
66663;SDS011;59683;51.428;-1.994;2024-01-06T05:39:56;11.73;;;1.70;;
66663;SDS011;59683;51.428;-1.994;2024-01-06T05:42:26;12.43;;;1.85;;
66663;SDS011;59683;51.428;-1.994;2024-01-06T05:44:51;7.23;;;2.17;;
66663;SDS011;59683;51.428;-1.994;2024-01-06T05:47:16;11.30;;;1.67;;
66663;SDS011;59683;51.428;-1.994;2024-01-06T05:49:42;9.17;;;1.40;;
66663;SDS011;59683;51.428;-1.994;2024-01-06T05:52:10;13.85;;;2.72;;
66663;SDS011;59683;51.428;-1.994;2024-01-06T05:54:36;12.70;;;1.43;;
66663;SDS011;59683;51.428;-1.994;2024-01-06T05:57:01;7.67;;;2.10;;
66663;SDS011;59683;51.428;-1.994;2024-01-06T05:59:27;12.93;;;2.13;;
66663;SDS011;59683;51.428;-1.994;2024-01-06T06:01:53;9.10;;;2.40;;
66663;SDS011;59683;51.428;-1.994;2024-01-06T06:04:18;5.50;;;1.70;;
66663;SDS011;59683;51.428;-1.994;2024-01-06T06:06:44;17.07;;;2.43;;
66663;SDS011;59683;51.428;-1.994;2024-01-06T06:09:09;10.27;;;2.00;;
66663;SDS011;59683;51.428;-1.994;2024-01-06T06:11:35;11.20;;;1.80;;
66663;SDS011;59683;51.428;-1.994;2024-01-06T06:14:01;7.40;;;1.87;;
66663;SDS011;59683;51.428;-1.994;2024-01-06T06:16:28;9.48;;;2.90;;
66663;SDS011;59683;51.428;-1.994;2024-01-06T06:18:54;12.40;;;1.70;;
66663;SDS011;59683;51.428;-1.994;2024-01-06T06:21:20;14.80;;;3.10;;
66663;SDS011;59683;51.428;-1.994;2024-01-06T06:23:45;9.97;;;1.97;;
66663;SDS011;59683;51.428;-1.994;2024-01-06T06:26:11;16.10;;;2.90;;
66663;SDS011;59683;51.428;-1.994;2024-01-06T06:28:36;13.07;;;2.00;;
66663;SDS011;59683;51.428;-1.994;2024-01-06T06:31:02;19.93;;;2.50;;
66663;SDS011;59683;51.428;-1.994;2024-01-06T06:33:28;11.30;;;2.30;;
66663;SDS011;59683;51.428;-1.994;2024-01-06T06:35:54;7.57;;;2.63;;
66663;SDS011;59683;51.428;-1.994;2024-01-06T06:38:19;5.87;;;1.90;;
66663;SDS011;59683;51.428;-1.994;2024-01-06T06:40:46;8.85;;;1.60;;
66663;SDS011;59683;51.428;-1.994;2024-01-06T06:43:12;6.17;;;2.07;;
66663;SDS011;59683;51.428;-1.994;2024-01-06T06:45:38;10.43;;;2.20;;
66663;SDS011;59683;51.428;-1.994;2024-01-06T06:48:03;8.10;;;2.00;;
66663;SDS011;59683;51.428;-1.994;2024-01-06T06:50:29;6.82;;;1.83;;
66663;SDS011;59683;51.428;-1.994;2024-01-06T06:52:55;14.77;;;2.40;;
66663;SDS011;59683;51.428;-1.994;2024-01-06T06:55:20;7.53;;;2.00;;
66663;SDS011;59683;51.428;-1.994;2024-01-06T06:57:45;12.10;;;2.57;;
66663;SDS011;59683;51.428;-1.994;2024-01-06T07:00:11;12.53;;;2.40;;
66663;SDS011;59683;51.428;-1.994;2024-01-06T07:02:37;11.63;;;2.40;;
66663;SDS011;59683;51.428;-1.994;2024-01-06T07:05:03;14.57;;;2.93;;
66663;SDS011;59683;51.428;-1.994;2024-01-06T07:07:31;16.95;;;2.85;;
66663;SDS011;59683;51.428;-1.994;2024-01-06T07:09:57;12.30;;;2.47;;
66663;SDS011;59683;51.428;-1.994;2024-01-06T07:12:23;16.20;;;3.37;;
66663;SDS011;59683;51.428;-1.994;2024-01-06T07:14:48;18.33;;;3.73;;
66663;SDS011;59683;51.428;-1.994;2024-01-06T07:17:13;10.20;;;3.17;;
66663;SDS011;59683;51.428;-1.994;2024-01-06T07:19:39;19.67;;;3.77;;
66663;SDS011;59683;51.428;-1.994;2024-01-06T07:22:04;14.83;;;2.70;;
66663;SDS011;59683;51.428;-1.994;2024-01-06T07:24:30;14.40;;;2.60;;
66663;SDS011;59683;51.428;-1.994;2024-01-06T07:26:55;14.23;;;2.97;;
66663;SDS011;59683;51.428;-1.994;2024-01-06T07:29:21;18.37;;;3.33;;
66663;SDS011;59683;51.428;-1.994;2024-01-06T07:31:46;13.13;;;3.37;;
66663;SDS011;59683;51.428;-1.994;2024-01-06T07:34:12;14.33;;;2.80;;
66663;SDS011;59683;51.428;-1.994;2024-01-06T07:36:37;12.87;;;3.90;;
66663;SDS011;59683;51.428;-1.994;2024-01-06T07:39:04;16.45;;;3.63;;
66663;SDS011;59683;51.428;-1.994;2024-01-06T07:41:31;11.57;;;2.88;;
66663;SDS011;59683;51.428;-1.994;2024-01-06T07:43:57;27.48;;;3.47;;
66663;SDS011;59683;51.428;-1.994;2024-01-06T07:46:23;19.13;;;3.50;;
66663;SDS011;59683;51.428;-1.994;2024-01-06T07:48:48;19.45;;;3.85;;
66663;SDS011;59683;51.428;-1.994;2024-01-06T07:51:14;16.27;;;3.77;;
66663;SDS011;59683;51.428;-1.994;2024-01-06T07:53:39;13.80;;;2.87;;
66663;SDS011;59683;51.428;-1.994;2024-01-06T07:56:05;13.47;;;3.63;;
66663;SDS011;59683;51.428;-1.994;2024-01-06T07:58:30;13.53;;;3.20;;
66663;SDS011;59683;51.428;-1.994;2024-01-06T08:00:56;19.83;;;3.97;;
66663;SDS011;59683;51.428;-1.994;2024-01-06T08:03:22;9.27;;;3.30;;
66663;SDS011;59683;51.428;-1.994;2024-01-06T08:05:48;16.50;;;3.85;;
66663;SDS011;59683;51.428;-1.994;2024-01-06T08:08:14;14.93;;;3.17;;
66663;SDS011;59683;51.428;-1.994;2024-01-06T08:10:41;11.38;;;3.55;;
66663;SDS011;59683;51.428;-1.994;2024-01-06T08:13:07;9.87;;;3.50;;
66663;SDS011;59683;51.428;-1.994;2024-01-06T08:15:32;25.87;;;3.40;;
66663;SDS011;59683;51.428;-1.994;2024-01-06T08:17:58;17.43;;;3.93;;
66663;SDS011;59683;51.428;-1.994;2024-01-06T08:20:23;11.10;;;3.53;;
66663;SDS011;59683;51.428;-1.994;2024-01-06T08:22:49;18.47;;;3.83;;
66663;SDS011;59683;51.428;-1.994;2024-01-06T08:25:14;15.50;;;3.70;;
66663;SDS011;59683;51.428;-1.994;2024-01-06T08:27:39;19.37;;;4.70;;
66663;SDS011;59683;51.428;-1.994;2024-01-06T08:30:05;17.53;;;3.87;;
66663;SDS011;59683;51.428;-1.994;2024-01-06T08:32:31;17.55;;;4.32;;
66663;SDS011;59683;51.428;-1.994;2024-01-06T08:34:56;17.60;;;4.07;;
66663;SDS011;59683;51.428;-1.994;2024-01-06T08:37:22;17.50;;;4.80;;
66663;SDS011;59683;51.428;-1.994;2024-01-06T08:39:47;14.60;;;4.90;;
66663;SDS011;59683;51.428;-1.994;2024-01-06T08:42:13;18.73;;;5.70;;
66663;SDS011;59683;51.428;-1.994;2024-01-06T08:44:38;26.20;;;9.60;;
66663;SDS011;59683;51.428;-1.994;2024-01-06T08:47:04;23.50;;;6.90;;
66663;SDS011;59683;51.428;-1.994;2024-01-06T08:49:29;13.93;;;5.43;;
66663;SDS011;59683;51.428;-1.994;2024-01-06T08:51:55;16.97;;;6.13;;
66663;SDS011;59683;51.428;-1.994;2024-01-06T08:54:20;20.37;;;6.07;;
66663;SDS011;59683;51.428;-1.994;2024-01-06T08:56:46;20.07;;;5.00;;
66663;SDS011;59683;51.428;-1.994;2024-01-06T08:59:11;21.37;;;6.20;;
66663;SDS011;59683;51.428;-1.994;2024-01-06T09:01:36;19.87;;;4.43;;
66663;SDS011;59683;51.428;-1.994;2024-01-06T09:04:02;22.50;;;4.05;;
66663;SDS011;59683;51.428;-1.994;2024-01-06T09:06:28;14.97;;;3.87;;
66663;SDS011;59683;51.428;-1.994;2024-01-06T09:08:53;13.53;;;4.83;;
66663;SDS011;59683;51.428;-1.994;2024-01-06T09:11:19;17.77;;;4.77;;
66663;SDS011;59683;51.428;-1.994;2024-01-06T09:13:44;17.07;;;3.70;;
66663;SDS011;59683;51.428;-1.994;2024-01-06T09:16:09;11.10;;;3.47;;
66663;SDS011;59683;51.428;-1.994;2024-01-06T09:18:35;18.77;;;4.13;;
66663;SDS011;59683;51.428;-1.994;2024-01-06T09:21:01;18.60;;;4.77;;
66663;SDS011;59683;51.428;-1.994;2024-01-06T09:23:27;20.03;;;6.13;;
66663;SDS011;59683;51.428;-1.994;2024-01-06T09:25:52;17.10;;;4.97;;
66663;SDS011;59683;51.428;-1.994;2024-01-06T09:28:18;23.07;;;6.30;;
66663;SDS011;59683;51.428;-1.994;2024-01-06T09:30:43;19.60;;;5.57;;
66663;SDS011;59683;51.428;-1.994;2024-01-06T09:33:09;10.53;;;4.10;;
66663;SDS011;59683;51.428;-1.994;2024-01-06T09:35:34;17.80;;;4.77;;
66663;SDS011;59683;51.428;-1.994;2024-01-06T09:38:00;10.13;;;4.17;;
66663;SDS011;59683;51.428;-1.994;2024-01-06T09:40:26;10.33;;;2.90;;
66663;SDS011;59683;51.428;-1.994;2024-01-06T09:42:51;10.97;;;3.20;;
66663;SDS011;59683;51.428;-1.994;2024-01-06T09:45:19;8.00;;;3.03;;
66663;SDS011;59683;51.428;-1.994;2024-01-06T09:47:50;8.25;;;3.13;;
66663;SDS011;59683;51.428;-1.994;2024-01-06T09:50:19;7.00;;;2.70;;
66663;SDS011;59683;51.428;-1.994;2024-01-06T09:52:45;16.20;;;2.30;;
66663;SDS011;59683;51.428;-1.994;2024-01-06T09:55:23;7.27;;;2.07;;
66663;SDS011;59683;51.428;-1.994;2024-01-06T09:57:51;9.87;;;1.70;;
66663;SDS011;59683;51.428;-1.994;2024-01-06T10:00:18;9.57;;;2.03;;
66663;SDS011;59683;51.428;-1.994;2024-01-06T10:02:44;8.30;;;2.00;;
66663;SDS011;59683;51.428;-1.994;2024-01-06T10:05:11;7.13;;;2.00;;
66663;SDS011;59683;51.428;-1.994;2024-01-06T10:07:38;4.37;;;1.47;;
66663;SDS011;59683;51.428;-1.994;2024-01-06T10:10:07;7.90;;;1.20;;
66663;SDS011;59683;51.428;-1.994;2024-01-06T10:12:32;6.93;;;1.17;;
66663;SDS011;59683;51.428;-1.994;2024-01-06T10:14:58;9.80;;;1.10;;
66663;SDS011;59683;51.428;-1.994;2024-01-06T10:17:23;6.17;;;1.10;;
66663;SDS011;59683;51.428;-1.994;2024-01-06T10:19:49;3.77;;;0.97;;
66663;SDS011;59683;51.428;-1.994;2024-01-06T10:22:14;8.33;;;1.40;;
66663;SDS011;59683;51.428;-1.994;2024-01-06T10:24:40;6.47;;;1.50;;
66663;SDS011;59683;51.428;-1.994;2024-01-06T10:27:05;6.57;;;1.47;;
66663;SDS011;59683;51.428;-1.994;2024-01-06T10:29:31;11.87;;;1.13;;
66663;SDS011;59683;51.428;-1.994;2024-01-06T10:31:57;8.33;;;1.40;;
66663;SDS011;59683;51.428;-1.994;2024-01-06T10:34:24;6.43;;;1.40;;
66663;SDS011;59683;51.428;-1.994;2024-01-06T10:36:50;6.17;;;1.20;;
66663;SDS011;59683;51.428;-1.994;2024-01-06T10:39:19;8.87;;;1.37;;
66663;SDS011;59683;51.428;-1.994;2024-01-06T10:41:45;7.60;;;1.60;;
66663;SDS011;59683;51.428;-1.994;2024-01-06T10:44:13;6.50;;;1.50;;
66663;SDS011;59683;51.428;-1.994;2024-01-06T10:46:39;6.87;;;1.17;;
66663;SDS011;59683;51.428;-1.994;2024-01-06T10:49:07;12.23;;;2.00;;
66663;SDS011;59683;51.428;-1.994;2024-01-06T10:51:37;7.13;;;1.38;;
66663;SDS011;59683;51.428;-1.994;2024-01-06T10:54:03;6.33;;;2.10;;
66663;SDS011;59683;51.428;-1.994;2024-01-06T10:56:30;7.17;;;1.30;;
66663;SDS011;59683;51.428;-1.994;2024-01-06T10:58:58;4.57;;;1.50;;
66663;SDS011;59683;51.428;-1.994;2024-01-06T11:01:25;5.07;;;1.40;;
66663;SDS011;59683;51.428;-1.994;2024-01-06T11:03:50;6.33;;;1.20;;
66663;SDS011;59683;51.428;-1.994;2024-01-06T11:06:18;6.30;;;1.27;;
66663;SDS011;59683;51.428;-1.994;2024-01-06T11:08:46;7.17;;;1.40;;
66663;SDS011;59683;51.428;-1.994;2024-01-06T11:11:16;6.50;;;1.60;;
66663;SDS011;59683;51.428;-1.994;2024-01-06T11:13:46;4.90;;;1.40;;
66663;SDS011;59683;51.428;-1.994;2024-01-06T11:16:33;6.20;;;0.90;;
66663;SDS011;59683;51.428;-1.994;2024-01-06T11:18:58;6.40;;;0.90;;
66663;SDS011;59683;51.428;-1.994;2024-01-06T11:21:24;6.67;;;1.10;;
66663;SDS011;59683;51.428;-1.994;2024-01-06T11:26:45;3.93;;;1.00;;
66663;SDS011;59683;51.428;-1.994;2024-01-06T11:29:14;6.10;;;1.10;;
66663;SDS011;59683;51.428;-1.994;2024-01-06T11:31:39;10.50;;;1.60;;
66663;SDS011;59683;51.428;-1.994;2024-01-06T11:34:15;7.80;;;1.10;;
66663;SDS011;59683;51.428;-1.994;2024-01-06T11:36:44;6.50;;;1.37;;
66663;SDS011;59683;51.428;-1.994;2024-01-06T11:42:01;3.60;;;1.23;;
66663;SDS011;59683;51.428;-1.994;2024-01-06T11:44:28;7.77;;;1.50;;
66663;SDS011;59683;51.428;-1.994;2024-01-06T11:46:55;6.63;;;1.33;;
66663;SDS011;59683;51.428;-1.994;2024-01-06T11:49:22;9.40;;;2.67;;
66663;SDS011;59683;51.428;-1.994;2024-01-06T11:51:55;6.90;;;1.97;;
66663;SDS011;59683;51.428;-1.994;2024-01-06T11:54:21;10.33;;;2.73;;
66663;SDS011;59683;51.428;-1.994;2024-01-06T11:56:48;9.20;;;2.73;;
66663;SDS011;59683;51.428;-1.994;2024-01-06T11:59:13;8.77;;;2.30;;
66663;SDS011;59683;51.428;-1.994;2024-01-06T12:01:39;7.97;;;2.60;;
66663;SDS011;59683;51.428;-1.994;2024-01-06T12:04:05;6.57;;;1.80;;
66663;SDS011;59683;51.428;-1.994;2024-01-06T12:06:31;7.77;;;1.93;;
66663;SDS011;59683;51.428;-1.994;2024-01-06T12:09:06;9.60;;;2.23;;
66663;SDS011;59683;51.428;-1.994;2024-01-06T12:11:33;6.23;;;1.90;;
66663;SDS011;59683;51.428;-1.994;2024-01-06T12:13:58;6.30;;;1.27;;
66663;SDS011;59683;51.428;-1.994;2024-01-06T12:16:23;10.63;;;2.50;;
66663;SDS011;59683;51.428;-1.994;2024-01-06T12:18:55;6.27;;;1.70;;
66663;SDS011;59683;51.428;-1.994;2024-01-06T12:21:22;6.60;;;2.30;;
66663;SDS011;59683;51.428;-1.994;2024-01-06T12:23:48;5.33;;;2.10;;
66663;SDS011;59683;51.428;-1.994;2024-01-06T12:26:13;6.43;;;1.90;;
66663;SDS011;59683;51.428;-1.994;2024-01-06T12:28:39;11.23;;;3.00;;
66663;SDS011;59683;51.428;-1.994;2024-01-06T12:31:04;7.37;;;2.83;;
66663;SDS011;59683;51.428;-1.994;2024-01-06T12:33:34;9.83;;;2.77;;
66663;SDS011;59683;51.428;-1.994;2024-01-06T12:36:02;12.23;;;2.80;;
66663;SDS011;59683;51.428;-1.994;2024-01-06T12:38:29;7.40;;;2.93;;
66663;SDS011;59683;51.428;-1.994;2024-01-06T12:40:55;6.17;;;2.10;;
66663;SDS011;59683;51.428;-1.994;2024-01-06T12:43:21;5.07;;;2.53;;
66663;SDS011;59683;51.428;-1.994;2024-01-06T12:45:46;5.07;;;2.03;;
66663;SDS011;59683;51.428;-1.994;2024-01-06T12:48:11;6.33;;;2.63;;
66663;SDS011;59683;51.428;-1.994;2024-01-06T12:50:37;11.07;;;2.23;;
66663;SDS011;59683;51.428;-1.994;2024-01-06T12:53:02;6.37;;;2.23;;
66663;SDS011;59683;51.428;-1.994;2024-01-06T12:55:28;5.30;;;2.30;;
66663;SDS011;59683;51.428;-1.994;2024-01-06T12:57:53;7.63;;;2.20;;
66663;SDS011;59683;51.428;-1.994;2024-01-06T13:00:19;7.43;;;2.20;;
66663;SDS011;59683;51.428;-1.994;2024-01-06T13:02:45;7.43;;;2.10;;
66663;SDS011;59683;51.428;-1.994;2024-01-06T13:05:10;6.73;;;2.30;;
66663;SDS011;59683;51.428;-1.994;2024-01-06T13:07:37;5.43;;;2.80;;
66663;SDS011;59683;51.428;-1.994;2024-01-06T13:10:04;7.77;;;2.60;;
66663;SDS011;59683;51.428;-1.994;2024-01-06T13:12:30;8.97;;;2.97;;
66663;SDS011;59683;51.428;-1.994;2024-01-06T13:14:58;4.43;;;1.97;;
66663;SDS011;59683;51.428;-1.994;2024-01-06T13:17:24;5.93;;;1.77;;
66663;SDS011;59683;51.428;-1.994;2024-01-06T13:19:50;8.03;;;2.10;;
66663;SDS011;59683;51.428;-1.994;2024-01-06T13:22:15;8.00;;;1.73;;
66663;SDS011;59683;51.428;-1.994;2024-01-06T13:24:43;7.87;;;2.00;;
66663;SDS011;59683;51.428;-1.994;2024-01-06T13:27:08;6.23;;;2.23;;
66663;SDS011;59683;51.428;-1.994;2024-01-06T13:29:34;7.83;;;3.60;;
66663;SDS011;59683;51.428;-1.994;2024-01-06T13:31:59;7.23;;;1.57;;
66663;SDS011;59683;51.428;-1.994;2024-01-06T13:34:25;4.70;;;1.93;;
66663;SDS011;59683;51.428;-1.994;2024-01-06T13:36:50;5.73;;;1.40;;
66663;SDS011;59683;51.428;-1.994;2024-01-06T13:39:16;5.13;;;2.13;;
66663;SDS011;59683;51.428;-1.994;2024-01-06T13:41:47;6.37;;;1.80;;
66663;SDS011;59683;51.428;-1.994;2024-01-06T13:44:13;6.90;;;2.10;;
66663;SDS011;59683;51.428;-1.994;2024-01-06T13:46:39;6.03;;;1.70;;
66663;SDS011;59683;51.428;-1.994;2024-01-06T13:49:09;6.70;;;2.15;;
66663;SDS011;59683;51.428;-1.994;2024-01-06T13:51:35;6.73;;;2.60;;
66663;SDS011;59683;51.428;-1.994;2024-01-06T13:54:01;6.40;;;2.47;;
66663;SDS011;59683;51.428;-1.994;2024-01-06T13:56:26;11.40;;;3.37;;
66663;SDS011;59683;51.428;-1.994;2024-01-06T13:58:51;5.13;;;1.70;;
66663;SDS011;59683;51.428;-1.994;2024-01-06T14:01:17;12.50;;;2.37;;
66663;SDS011;59683;51.428;-1.994;2024-01-06T14:03:42;11.43;;;2.40;;
66663;SDS011;59683;51.428;-1.994;2024-01-06T14:06:08;6.13;;;1.83;;
66663;SDS011;59683;51.428;-1.994;2024-01-06T14:08:34;5.50;;;2.03;;
66663;SDS011;59683;51.428;-1.994;2024-01-06T14:10:59;6.27;;;1.60;;
66663;SDS011;59683;51.428;-1.994;2024-01-06T14:13:24;7.97;;;2.20;;
66663;SDS011;59683;51.428;-1.994;2024-01-06T14:15:51;3.90;;;1.10;;
66663;SDS011;59683;51.428;-1.994;2024-01-06T14:18:16;5.77;;;1.70;;
66663;SDS011;59683;51.428;-1.994;2024-01-06T14:20:42;3.73;;;1.30;;
66663;SDS011;59683;51.428;-1.994;2024-01-06T14:23:07;3.37;;;1.23;;
66663;SDS011;59683;51.428;-1.994;2024-01-06T14:25:35;5.63;;;1.20;;
66663;SDS011;59683;51.428;-1.994;2024-01-06T14:28:00;4.37;;;1.30;;
66663;SDS011;59683;51.428;-1.994;2024-01-06T14:30:26;6.77;;;1.53;;